Alexander von Humboldt II — DDKK2 — position and weather

sailwx.info

Track history (hours):
 
Tides and Currents Weather Stations Pressure Air Temp Water Temp Dewpoint Dewpoint Depression Visibility Wind Speed Wind Dir Waves Ship Positions

Alexander von Humboldt II

Ship's website: https://www.alex-2.de/en/

Last reported at 2020-Jul-07 10:38 UTC. Time now 2020-Jul-09 21:41 UTC.
Position N 54°03' E 011°13'.

Length 65 m; draft 4.8 m.

Type: Sailing vessel. MMSI: 218768000.

Date/timePositionNaut miles runAvg speedWind from/ knotsBaromVisibWave heightAir tempDewpointWater temp
2020-Jul-07 10:38N 54°03' E 011°13'17 2.9
2020-Jul-07 04:54N 54°20' E 011°18'18 3.6
2020-Jul-07 00:00N 54°03' E 011°11'8 4.2
2020-Jul-06 22:05N 54°11' E 011°13'16 5.3
2020-Jul-06 19:00N 54°26' E 011°21'4 8.1
2020-Jul-06 18:30N 54°30' E 011°18'10 9.9
2020-Jul-06 17:30N 54°37' E 011°06'5 9.1
2020-Jul-06 17:00N 54°38' E 010°59'39 7.7
2020-Jul-06 12:00N 55°17' E 011°02'36 4.8
2020-Jul-06 04:30N 55°47' E 010°26'4 2.4
2020-Jul-06 03:00N 55°50' E 010°30'3 5.2
2020-Jul-06 02:30N 55°52' E 010°28'3 3.2
2020-Jul-06 01:30N 55°55' E 010°29'10 2.7
2020-Jul-05 22:01N 56°03' E 010°38'5 2.7
2020-Jul-05 20:00N 56°07' E 010°45'14 3.4
2020-Jul-05 16:01N 56°19' E 010°58'33 1.6
2020-Jul-04 19:25N 56°20' E 011°57'30 3.8
2020-Jul-04 11:30N 56°02' E 012°40'50 5.9
2020-Jul-04 03:01N 55°13' E 012°54'5 4.6
2020-Jul-04 02:00N 55°11' E 013°02'4 0.1
2020-Jul-01 23:01N 55°12' E 012°56'16 3.3
2020-Jul-01 18:01N 55°27' E 012°44'10 5.1
2020-Jul-01 16:01N 55°37' E 012°42'12 4.8
2020-Jul-01 13:30N 55°49' E 012°40'  
2020-Jun-28 22:19N 57°18' E 011°21'2 6.0
2020-Jun-28 22:01N 57°19' E 011°19'3 6.3
2020-Jun-28 21:29N 57°22' E 011°17'15 5.0
2020-Jun-28 18:31N 57°36' E 011°05'57 5.1
2020-Jun-28 07:28N 57°49' E 009°21'10 4.0
2020-Jun-28 05:00N 57°45' E 009°05'10 3.9
2020-Jun-28 02:30N 57°43' E 008°46'5 4.6
2020-Jun-28 01:29N 57°43' E 008°38'10 4.2
2020-Jun-27 23:00N 57°42' E 008°18'2 3.8
2020-Jun-27 22:30N 57°42' E 008°15'17 5.7
2020-Jun-27 19:30N 57°37' E 007°44'2 3.5
2020-Jun-27 19:00N 57°36' E 007°41'7 3.0
2020-Jun-27 16:30N 57°29' E 007°35'9 3.5
2020-Jun-27 14:00N 57°22' E 007°26'2 3.9
2020-Jun-27 13:30N 57°20' E 007°25'  
Track history (hours):
 
Tides and Currents Weather Stations Pressure Air Temp Water Temp Dewpoint Dewpoint Depression Visibility Wind Speed Wind Dir Waves Ship Positions

Alexander von Humboldt II

Ship's website: https://www.alex-2.de/en/

Last reported at 2020-Jul-07 10:38 UTC. Time now 2020-Jul-09 21:41 UTC.
Position N 54°03' E 011°13'.

Length 65 m; draft 4.8 m.

Type: Sailing vessel. MMSI: 218768000.

Date/timePositionNaut miles runAvg speedWind from/ knotsBaromVisibWave heightAir tempDewpointWater temp
2020-Jul-07 10:38N 54°03' E 011°13'17 2.9
2020-Jul-07 04:54N 54°20' E 011°18'18 3.6
2020-Jul-07 00:00N 54°03' E 011°11'8 4.2
2020-Jul-06 22:05N 54°11' E 011°13'16 5.3
2020-Jul-06 19:00N 54°26' E 011°21'4 8.1
2020-Jul-06 18:30N 54°30' E 011°18'10 9.9
2020-Jul-06 17:30N 54°37' E 011°06'5 9.1
2020-Jul-06 17:00N 54°38' E 010°59'39 7.7
2020-Jul-06 12:00N 55°17' E 011°02'36 4.8
2020-Jul-06 04:30N 55°47' E 010°26'4 2.4
2020-Jul-06 03:00N 55°50' E 010°30'3 5.2
2020-Jul-06 02:30N 55°52' E 010°28'3 3.2
2020-Jul-06 01:30N 55°55' E 010°29'10 2.7
2020-Jul-05 22:01N 56°03' E 010°38'5 2.7
2020-Jul-05 20:00N 56°07' E 010°45'14 3.4
2020-Jul-05 16:01N 56°19' E 010°58'33 1.6
2020-Jul-04 19:25N 56°20' E 011°57'30 3.8
2020-Jul-04 11:30N 56°02' E 012°40'50 5.9
2020-Jul-04 03:01N 55°13' E 012°54'5 4.6
2020-Jul-04 02:00N 55°11' E 013°02'4 0.1
2020-Jul-01 23:01N 55°12' E 012°56'16 3.3
2020-Jul-01 18:01N 55°27' E 012°44'10 5.1
2020-Jul-01 16:01N 55°37' E 012°42'12 4.8
2020-Jul-01 13:30N 55°49' E 012°40'  
2020-Jun-28 22:19N 57°18' E 011°21'2 6.0
2020-Jun-28 22:01N 57°19' E 011°19'3 6.3
2020-Jun-28 21:29N 57°22' E 011°17'15 5.0
2020-Jun-28 18:31N 57°36' E 011°05'57 5.1
2020-Jun-28 07:28N 57°49' E 009°21'10 4.0
2020-Jun-28 05:00N 57°45' E 009°05'10 3.9
2020-Jun-28 02:30N 57°43' E 008°46'5 4.6
2020-Jun-28 01:29N 57°43' E 008°38'10 4.2
2020-Jun-27 23:00N 57°42' E 008°18'2 3.8
2020-Jun-27 22:30N 57°42' E 008°15'17 5.7
2020-Jun-27 19:30N 57°37' E 007°44'2 3.5
2020-Jun-27 19:00N 57°36' E 007°41'7 3.0
2020-Jun-27 16:30N 57°29' E 007°35'9 3.5
2020-Jun-27 14:00N 57°22' E 007°26'2 3.9
2020-Jun-27 13:30N 57°20' E 007°25'  

Dump ship's entire track history